sensor_id;sensor_type;location;lat;lon;timestamp;temperature;humidity
1570;DHT22;778;50.120;8.698;2023-04-09T00:02:08;8.60;99.90
1570;DHT22;778;50.120;8.698;2023-04-09T00:04:37;8.50;99.90
1570;DHT22;778;50.120;8.698;2023-04-09T00:07:05;8.60;99.90
1570;DHT22;778;50.120;8.698;2023-04-09T00:09:33;8.60;99.90
1570;DHT22;778;50.120;8.698;2023-04-09T00:12:02;8.50;99.90
1570;DHT22;778;50.120;8.698;2023-04-09T00:14:32;8.60;99.90
1570;DHT22;778;50.120;8.698;2023-04-09T00:17:00;8.60;99.90
1570;DHT22;778;50.120;8.698;2023-04-09T00:19:29;8.50;99.90
1570;DHT22;778;50.120;8.698;2023-04-09T00:21:57;8.50;99.90
1570;DHT22;778;50.120;8.698;2023-04-09T00:24:25;8.50;99.90
1570;DHT22;778;50.120;8.698;2023-04-09T00:26:54;8.40;99.90
1570;DHT22;778;50.120;8.698;2023-04-09T00:29:22;8.50;99.90
1570;DHT22;778;50.120;8.698;2023-04-09T00:31:52;8.50;99.90
1570;DHT22;778;50.120;8.698;2023-04-09T00:34:21;8.50;99.90
1570;DHT22;778;50.120;8.698;2023-04-09T00:36:49;8.50;99.90
1570;DHT22;778;50.120;8.698;2023-04-09T00:39:17;8.50;99.90
1570;DHT22;778;50.120;8.698;2023-04-09T00:41:46;8.40;99.90
1570;DHT22;778;50.120;8.698;2023-04-09T00:44:15;8.40;99.90
1570;DHT22;778;50.120;8.698;2023-04-09T00:46:43;8.40;99.90
1570;DHT22;778;50.120;8.698;2023-04-09T00:49:13;8.50;99.90
1570;DHT22;778;50.120;8.698;2023-04-09T00:51:43;8.40;99.90
1570;DHT22;778;50.120;8.698;2023-04-09T00:54:13;8.40;99.90
1570;DHT22;778;50.120;8.698;2023-04-09T00:56:41;8.30;99.90
1570;DHT22;778;50.120;8.698;2023-04-09T00:59:11;8.30;99.90
1570;DHT22;778;50.120;8.698;2023-04-09T01:01:39;8.30;99.90
1570;DHT22;778;50.120;8.698;2023-04-09T01:04:08;8.30;99.90
1570;DHT22;778;50.120;8.698;2023-04-09T01:06:42;8.40;99.90
1570;DHT22;778;50.120;8.698;2023-04-09T01:09:20;8.40;99.90
1570;DHT22;778;50.120;8.698;2023-04-09T01:11:58;8.30;99.90
1570;DHT22;778;50.120;8.698;2023-04-09T01:14:37;8.40;99.90
1570;DHT22;778;50.120;8.698;2023-04-09T01:17:16;8.40;99.90
1570;DHT22;778;50.120;8.698;2023-04-09T01:19:52;8.40;99.90
1570;DHT22;778;50.120;8.698;2023-04-09T01:22:39;8.40;99.90
1570;DHT22;778;50.120;8.698;2023-04-09T01:25:22;8.30;99.90
1570;DHT22;778;50.120;8.698;2023-04-09T01:28:16;8.30;99.90
1570;DHT22;778;50.120;8.698;2023-04-09T01:30:48;8.30;99.90
1570;DHT22;778;50.120;8.698;2023-04-09T01:33:18;8.30;99.90
1570;DHT22;778;50.120;8.698;2023-04-09T01:35:48;8.20;99.90
1570;DHT22;778;50.120;8.698;2023-04-09T01:38:19;8.20;99.90
1570;DHT22;778;50.120;8.698;2023-04-09T01:40:48;8.20;99.90
1570;DHT22;778;50.120;8.698;2023-04-09T01:43:19;8.20;99.90
1570;DHT22;778;50.120;8.698;2023-04-09T01:45:48;8.20;99.90
1570;DHT22;778;50.120;8.698;2023-04-09T01:48:18;8.20;99.90
1570;DHT22;778;50.120;8.698;2023-04-09T01:50:47;8.20;99.90
1570;DHT22;778;50.120;8.698;2023-04-09T01:53:16;8.10;99.90
1570;DHT22;778;50.120;8.698;2023-04-09T01:55:45;8.00;99.90
1570;DHT22;778;50.120;8.698;2023-04-09T01:58:13;8.00;99.90
1570;DHT22;778;50.120;8.698;2023-04-09T02:00:46;8.00;99.90
1570;DHT22;778;50.120;8.698;2023-04-09T02:03:18;8.00;99.90
1570;DHT22;778;50.120;8.698;2023-04-09T02:05:58;7.90;99.90
1570;DHT22;778;50.120;8.698;2023-04-09T02:08:35;7.90;99.90
1570;DHT22;778;50.120;8.698;2023-04-09T02:11:07;7.90;99.90
1570;DHT22;778;50.120;8.698;2023-04-09T02:13:39;7.90;99.90
1570;DHT22;778;50.120;8.698;2023-04-09T02:16:10;7.80;99.90
1570;DHT22;778;50.120;8.698;2023-04-09T02:18:41;7.90;99.90
1570;DHT22;778;50.120;8.698;2023-04-09T02:21:09;7.80;99.90
1570;DHT22;778;50.120;8.698;2023-04-09T02:23:39;7.80;99.90
1570;DHT22;778;50.120;8.698;2023-04-09T02:26:08;7.80;99.90
1570;DHT22;778;50.120;8.698;2023-04-09T02:28:36;7.80;99.90
1570;DHT22;778;50.120;8.698;2023-04-09T02:31:05;7.80;99.90
1570;DHT22;778;50.120;8.698;2023-04-09T02:33:34;7.70;99.90
1570;DHT22;778;50.120;8.698;2023-04-09T02:36:03;7.70;99.90
1570;DHT22;778;50.120;8.698;2023-04-09T02:38:33;7.80;99.90
1570;DHT22;778;50.120;8.698;2023-04-09T02:41:01;7.70;99.90
1570;DHT22;778;50.120;8.698;2023-04-09T02:43:29;7.70;99.90
1570;DHT22;778;50.120;8.698;2023-04-09T02:45:58;7.70;99.90
1570;DHT22;778;50.120;8.698;2023-04-09T02:48:26;7.70;99.90
1570;DHT22;778;50.120;8.698;2023-04-09T02:50:57;7.70;99.90
1570;DHT22;778;50.120;8.698;2023-04-09T02:53:25;7.70;99.90
1570;DHT22;778;50.120;8.698;2023-04-09T02:55:54;7.60;99.90
1570;DHT22;778;50.120;8.698;2023-04-09T02:58:22;7.60;99.90
1570;DHT22;778;50.120;8.698;2023-04-09T03:00:50;7.60;99.90
1570;DHT22;778;50.120;8.698;2023-04-09T03:03:19;7.60;99.90
1570;DHT22;778;50.120;8.698;2023-04-09T03:05:47;7.60;99.90
1570;DHT22;778;50.120;8.698;2023-04-09T03:08:17;7.50;99.90
1570;DHT22;778;50.120;8.698;2023-04-09T03:10:46;7.50;99.90
1570;DHT22;778;50.120;8.698;2023-04-09T03:13:14;7.50;99.90
1570;DHT22;778;50.120;8.698;2023-04-09T03:15:43;7.50;99.90
1570;DHT22;778;50.120;8.698;2023-04-09T03:18:11;8.00;99.90
1570;DHT22;778;50.120;8.698;2023-04-09T03:20:41;8.40;99.90
1570;DHT22;778;50.120;8.698;2023-04-09T03:23:11;8.80;99.90
1570;DHT22;778;50.120;8.698;2023-04-09T03:25:46;8.80;99.90
1570;DHT22;778;50.120;8.698;2023-04-09T03:28:16;8.80;99.90
1570;DHT22;778;50.120;8.698;2023-04-09T03:30:51;9.00;99.90
1570;DHT22;778;50.120;8.698;2023-04-09T03:33:21;8.80;99.90
1570;DHT22;778;50.120;8.698;2023-04-09T03:35:53;8.80;99.90
1570;DHT22;778;50.120;8.698;2023-04-09T03:38:44;8.80;99.90
1570;DHT22;778;50.120;8.698;2023-04-09T03:41:25;8.80;99.90
1570;DHT22;778;50.120;8.698;2023-04-09T03:43:56;8.70;99.90
1570;DHT22;778;50.120;8.698;2023-04-09T03:46:29;8.70;99.90
1570;DHT22;778;50.120;8.698;2023-04-09T03:48:59;8.60;99.90
1570;DHT22;778;50.120;8.698;2023-04-09T03:51:41;8.20;99.90
1570;DHT22;778;50.120;8.698;2023-04-09T03:54:11;7.90;99.90
1570;DHT22;778;50.120;8.698;2023-04-09T03:56:41;7.80;99.90
1570;DHT22;778;50.120;8.698;2023-04-09T03:59:12;7.70;99.90
1570;DHT22;778;50.120;8.698;2023-04-09T04:01:44;7.60;99.90
1570;DHT22;778;50.120;8.698;2023-04-09T04:04:13;7.50;99.90
1570;DHT22;778;50.120;8.698;2023-04-09T04:06:46;7.50;99.90
1570;DHT22;778;50.120;8.698;2023-04-09T04:09:44;7.40;99.90
1570;DHT22;778;50.120;8.698;2023-04-09T04:12:17;7.30;99.90
1570;DHT22;778;50.120;8.698;2023-04-09T04:15:06;7.30;99.90
1570;DHT22;778;50.120;8.698;2023-04-09T04:17:41;7.20;99.90
1570;DHT22;778;50.120;8.698;2023-04-09T04:20:21;7.20;99.90
1570;DHT22;778;50.120;8.698;2023-04-09T04:22:59;7.20;99.90
1570;DHT22;778;50.120;8.698;2023-04-09T04:25:28;7.20;99.90
1570;DHT22;778;50.120;8.698;2023-04-09T04:27:58;7.20;99.90
1570;DHT22;778;50.120;8.698;2023-04-09T04:30:35;7.30;99.90
1570;DHT22;778;50.120;8.698;2023-04-09T04:33:07;7.20;99.90
1570;DHT22;778;50.120;8.698;2023-04-09T04:35:49;7.20;99.90
1570;DHT22;778;50.120;8.698;2023-04-09T04:38:47;7.20;99.90
1570;DHT22;778;50.120;8.698;2023-04-09T04:41:30;7.20;99.90
1570;DHT22;778;50.120;8.698;2023-04-09T04:44:26;7.20;99.90
1570;DHT22;778;50.120;8.698;2023-04-09T04:47:04;7.20;99.90
1570;DHT22;778;50.120;8.698;2023-04-09T04:49:32;7.20;99.90
1570;DHT22;778;50.120;8.698;2023-04-09T04:52:04;7.20;99.90
1570;DHT22;778;50.120;8.698;2023-04-09T04:54:33;7.20;99.90
1570;DHT22;778;50.120;8.698;2023-04-09T04:57:02;7.10;99.90
1570;DHT22;778;50.120;8.698;2023-04-09T04:59:39;7.10;99.90
1570;DHT22;778;50.120;8.698;2023-04-09T05:02:10;7.10;99.90
1570;DHT22;778;50.120;8.698;2023-04-09T05:05:12;7.10;99.90
1570;DHT22;778;50.120;8.698;2023-04-09T05:07:47;7.10;99.90
1570;DHT22;778;50.120;8.698;2023-04-09T05:10:16;7.10;99.90
1570;DHT22;778;50.120;8.698;2023-04-09T05:12:45;7.10;99.90
1570;DHT22;778;50.120;8.698;2023-04-09T05:15:23;7.10;99.90
1570;DHT22;778;50.120;8.698;2023-04-09T05:17:51;7.10;99.90
1570;DHT22;778;50.120;8.698;2023-04-09T05:20:20;7.20;99.90
1570;DHT22;778;50.120;8.698;2023-04-09T05:23:01;7.20;99.90
1570;DHT22;778;50.120;8.698;2023-04-09T05:25:35;7.20;99.90
1570;DHT22;778;50.120;8.698;2023-04-09T05:28:05;7.20;99.90
1570;DHT22;778;50.120;8.698;2023-04-09T05:30:36;7.20;99.90
1570;DHT22;778;50.120;8.698;2023-04-09T05:33:04;7.20;99.90
1570;DHT22;778;50.120;8.698;2023-04-09T05:35:37;7.20;99.90
1570;DHT22;778;50.120;8.698;2023-04-09T05:38:06;7.30;99.90
1570;DHT22;778;50.120;8.698;2023-04-09T05:40:34;7.30;99.90
1570;DHT22;778;50.120;8.698;2023-04-09T05:43:08;7.40;99.90
1570;DHT22;778;50.120;8.698;2023-04-09T05:45:41;7.40;99.90
1570;DHT22;778;50.120;8.698;2023-04-09T05:48:10;7.40;99.90
1570;DHT22;778;50.120;8.698;2023-04-09T05:50:39;7.40;99.90
1570;DHT22;778;50.120;8.698;2023-04-09T05:53:23;7.40;99.90
1570;DHT22;778;50.120;8.698;2023-04-09T05:55:51;7.40;99.90
1570;DHT22;778;50.120;8.698;2023-04-09T05:58:23;7.40;99.90
1570;DHT22;778;50.120;8.698;2023-04-09T06:00:57;7.40;99.90
1570;DHT22;778;50.120;8.698;2023-04-09T06:03:25;7.50;99.90
1570;DHT22;778;50.120;8.698;2023-04-09T06:05:54;7.50;99.90
1570;DHT22;778;50.120;8.698;2023-04-09T06:08:23;7.50;99.90
1570;DHT22;778;50.120;8.698;2023-04-09T06:10:51;7.50;99.90
1570;DHT22;778;50.120;8.698;2023-04-09T06:13:20;7.60;99.90
1570;DHT22;778;50.120;8.698;2023-04-09T06:15:48;7.60;99.90
1570;DHT22;778;50.120;8.698;2023-04-09T06:18:18;7.70;99.90
1570;DHT22;778;50.120;8.698;2023-04-09T06:20:46;7.70;99.90
1570;DHT22;778;50.120;8.698;2023-04-09T06:23:15;7.70;99.90
1570;DHT22;778;50.120;8.698;2023-04-09T06:25:45;7.80;99.90
1570;DHT22;778;50.120;8.698;2023-04-09T06:28:13;7.80;99.90
1570;DHT22;778;50.120;8.698;2023-04-09T06:30:42;7.80;99.90
1570;DHT22;778;50.120;8.698;2023-04-09T06:33:10;7.80;99.90
1570;DHT22;778;50.120;8.698;2023-04-09T06:35:41;7.90;99.90
1570;DHT22;778;50.120;8.698;2023-04-09T06:38:09;7.90;99.90
1570;DHT22;778;50.120;8.698;2023-04-09T06:40:38;7.90;99.90
1570;DHT22;778;50.120;8.698;2023-04-09T06:43:06;7.90;99.90
1570;DHT22;778;50.120;8.698;2023-04-09T06:45:41;8.00;99.90
1570;DHT22;778;50.120;8.698;2023-04-09T06:48:10;8.10;99.90
1570;DHT22;778;50.120;8.698;2023-04-09T06:50:40;8.20;99.90
1570;DHT22;778;50.120;8.698;2023-04-09T06:53:08;8.30;99.90
1570;DHT22;778;50.120;8.698;2023-04-09T06:55:36;8.40;99.90
1570;DHT22;778;50.120;8.698;2023-04-09T06:58:05;8.40;99.90
1570;DHT22;778;50.120;8.698;2023-04-09T07:00:33;8.50;99.90
1570;DHT22;778;50.120;8.698;2023-04-09T07:03:02;8.50;99.90
1570;DHT22;778;50.120;8.698;2023-04-09T07:05:31;8.60;99.90
1570;DHT22;778;50.120;8.698;2023-04-09T07:08:01;8.70;99.90
1570;DHT22;778;50.120;8.698;2023-04-09T07:10:30;8.80;99.90
1570;DHT22;778;50.120;8.698;2023-04-09T07:12:58;8.70;99.90
1570;DHT22;778;50.120;8.698;2023-04-09T07:15:26;8.70;99.90
1570;DHT22;778;50.120;8.698;2023-04-09T07:17:55;8.80;99.90
1570;DHT22;778;50.120;8.698;2023-04-09T07:20:23;8.90;99.90
1570;DHT22;778;50.120;8.698;2023-04-09T07:22:52;9.00;99.90
1570;DHT22;778;50.120;8.698;2023-04-09T07:25:21;9.10;99.90
1570;DHT22;778;50.120;8.698;2023-04-09T07:27:50;9.10;99.90
1570;DHT22;778;50.120;8.698;2023-04-09T07:30:19;9.20;99.90
1570;DHT22;778;50.120;8.698;2023-04-09T07:32:47;9.20;99.90
1570;DHT22;778;50.120;8.698;2023-04-09T07:35:16;9.30;99.90
1570;DHT22;778;50.120;8.698;2023-04-09T07:37:45;9.40;99.90
1570;DHT22;778;50.120;8.698;2023-04-09T07:40:13;9.40;99.90
1570;DHT22;778;50.120;8.698;2023-04-09T07:42:43;9.40;99.90
1570;DHT22;778;50.120;8.698;2023-04-09T07:45:12;9.50;99.90
1570;DHT22;778;50.120;8.698;2023-04-09T07:47:40;9.50;99.90
1570;DHT22;778;50.120;8.698;2023-04-09T07:50:09;9.60;99.90
1570;DHT22;778;50.120;8.698;2023-04-09T07:52:38;9.70;99.90
1570;DHT22;778;50.120;8.698;2023-04-09T07:55:07;9.70;99.90
1570;DHT22;778;50.120;8.698;2023-04-09T07:57:35;9.70;99.90
1570;DHT22;778;50.120;8.698;2023-04-09T08:00:07;9.80;99.90
1570;DHT22;778;50.120;8.698;2023-04-09T08:02:39;9.90;99.90
1570;DHT22;778;50.120;8.698;2023-04-09T08:05:08;10.00;99.90
1570;DHT22;778;50.120;8.698;2023-04-09T08:07:37;10.10;99.90
1570;DHT22;778;50.120;8.698;2023-04-09T08:10:06;10.20;99.90
1570;DHT22;778;50.120;8.698;2023-04-09T08:12:40;10.30;99.90
1570;DHT22;778;50.120;8.698;2023-04-09T08:15:10;10.40;99.90
1570;DHT22;778;50.120;8.698;2023-04-09T08:17:39;10.50;99.90
1570;DHT22;778;50.120;8.698;2023-04-09T08:20:08;10.60;99.90
1570;DHT22;778;50.120;8.698;2023-04-09T08:22:38;10.60;99.90
1570;DHT22;778;50.120;8.698;2023-04-09T08:25:08;10.50;99.90
1570;DHT22;778;50.120;8.698;2023-04-09T08:27:36;10.70;99.90
1570;DHT22;778;50.120;8.698;2023-04-09T08:30:06;10.80;99.90
1570;DHT22;778;50.120;8.698;2023-04-09T08:32:37;10.80;99.90
1570;DHT22;778;50.120;8.698;2023-04-09T08:35:06;10.90;99.90
1570;DHT22;778;50.120;8.698;2023-04-09T08:37:36;11.10;99.90
1570;DHT22;778;50.120;8.698;2023-04-09T08:40:05;11.10;99.90
1570;DHT22;778;50.120;8.698;2023-04-09T08:42:36;11.10;99.90
1570;DHT22;778;50.120;8.698;2023-04-09T08:45:08;11.10;99.90
1570;DHT22;778;50.120;8.698;2023-04-09T08:47:40;10.90;99.90
1570;DHT22;778;50.120;8.698;2023-04-09T08:50:09;10.90;99.90
1570;DHT22;778;50.120;8.698;2023-04-09T08:52:38;11.00;99.90
1570;DHT22;778;50.120;8.698;2023-04-09T08:55:08;11.10;99.90
1570;DHT22;778;50.120;8.698;2023-04-09T08:57:39;11.30;99.90
1570;DHT22;778;50.120;8.698;2023-04-09T09:00:08;11.30;99.90
1570;DHT22;778;50.120;8.698;2023-04-09T09:02:41;11.40;99.90
1570;DHT22;778;50.120;8.698;2023-04-09T09:05:35;11.60;99.90
1570;DHT22;778;50.120;8.698;2023-04-09T09:08:05;11.80;99.90
1570;DHT22;778;50.120;8.698;2023-04-09T09:10:38;11.90;99.90
1570;DHT22;778;50.120;8.698;2023-04-09T09:13:18;12.00;99.90
1570;DHT22;778;50.120;8.698;2023-04-09T09:15:49;12.30;99.90
1570;DHT22;778;50.120;8.698;2023-04-09T09:18:37;12.40;99.90
1570;DHT22;778;50.120;8.698;2023-04-09T09:21:10;12.50;99.90
1570;DHT22;778;50.120;8.698;2023-04-09T09:23:38;12.40;99.90
1570;DHT22;778;50.120;8.698;2023-04-09T09:26:12;12.70;99.90
1570;DHT22;778;50.120;8.698;2023-04-09T09:28:42;13.20;99.90
1570;DHT22;778;50.120;8.698;2023-04-09T09:31:12;13.50;99.90
1570;DHT22;778;50.120;8.698;2023-04-09T09:33:42;13.60;99.90
1570;DHT22;778;50.120;8.698;2023-04-09T09:36:11;13.80;99.90
1570;DHT22;778;50.120;8.698;2023-04-09T09:38:51;13.90;99.90
1570;DHT22;778;50.120;8.698;2023-04-09T09:41:21;14.10;99.90
1570;DHT22;778;50.120;8.698;2023-04-09T09:43:51;14.40;99.90
1570;DHT22;778;50.120;8.698;2023-04-09T09:46:20;14.70;99.90
1570;DHT22;778;50.120;8.698;2023-04-09T09:48:50;14.90;99.90
1570;DHT22;778;50.120;8.698;2023-04-09T09:51:23;15.10;99.90
1570;DHT22;778;50.120;8.698;2023-04-09T09:53:55;15.00;99.90
1570;DHT22;778;50.120;8.698;2023-04-09T09:56:29;15.00;99.90
1570;DHT22;778;50.120;8.698;2023-04-09T09:59:05;15.30;99.70
1570;DHT22;778;50.120;8.698;2023-04-09T10:01:35;15.50;99.00
1570;DHT22;778;50.120;8.698;2023-04-09T10:04:07;15.40;99.90
1570;DHT22;778;50.120;8.698;2023-04-09T10:06:42;14.90;98.70
1570;DHT22;778;50.120;8.698;2023-04-09T10:09:12;14.30;99.90
1570;DHT22;778;50.120;8.698;2023-04-09T10:11:40;14.20;99.90
1570;DHT22;778;50.120;8.698;2023-04-09T10:14:11;14.10;99.90
1570;DHT22;778;50.120;8.698;2023-04-09T10:16:41;13.90;99.90
1570;DHT22;778;50.120;8.698;2023-04-09T10:19:11;13.70;99.90
1570;DHT22;778;50.120;8.698;2023-04-09T10:21:44;13.60;99.90
1570;DHT22;778;50.120;8.698;2023-04-09T10:24:16;13.60;99.90
1570;DHT22;778;50.120;8.698;2023-04-09T10:26:44;14.00;99.90
1570;DHT22;778;50.120;8.698;2023-04-09T10:29:14;14.30;99.90
1570;DHT22;778;50.120;8.698;2023-04-09T10:31:52;14.20;99.90
1570;DHT22;778;50.120;8.698;2023-04-09T10:34:26;14.10;99.60
1570;DHT22;778;50.120;8.698;2023-04-09T10:36:56;13.90;97.70
1570;DHT22;778;50.120;8.698;2023-04-09T10:39:26;13.80;99.30
1570;DHT22;778;50.120;8.698;2023-04-09T10:41:55;14.00;99.00
1570;DHT22;778;50.120;8.698;2023-04-09T10:44:26;13.80;97.00
1570;DHT22;778;50.120;8.698;2023-04-09T10:46:57;13.70;98.30
1570;DHT22;778;50.120;8.698;2023-04-09T10:49:35;13.70;98.90
1570;DHT22;778;50.120;8.698;2023-04-09T10:52:05;13.50;99.90
1570;DHT22;778;50.120;8.698;2023-04-09T10:54:45;13.30;99.90
1570;DHT22;778;50.120;8.698;2023-04-09T10:57:16;13.10;99.90
1570;DHT22;778;50.120;8.698;2023-04-09T10:59:48;13.00;99.90
1570;DHT22;778;50.120;8.698;2023-04-09T11:02:47;12.80;96.40
1570;DHT22;778;50.120;8.698;2023-04-09T11:05:32;12.70;97.30
1570;DHT22;778;50.120;8.698;2023-04-09T11:08:04;12.70;98.60
1570;DHT22;778;50.120;8.698;2023-04-09T11:10:35;12.80;98.00
1570;DHT22;778;50.120;8.698;2023-04-09T11:13:04;12.80;96.10
1570;DHT22;778;50.120;8.698;2023-04-09T11:15:34;12.80;94.40
1570;DHT22;778;50.120;8.698;2023-04-09T11:18:03;12.90;95.10
1570;DHT22;778;50.120;8.698;2023-04-09T11:20:34;13.00;96.20
1570;DHT22;778;50.120;8.698;2023-04-09T11:23:03;13.20;97.10
1570;DHT22;778;50.120;8.698;2023-04-09T11:25:33;13.10;93.80
1570;DHT22;778;50.120;8.698;2023-04-09T11:28:02;13.00;94.30
1570;DHT22;778;50.120;8.698;2023-04-09T11:30:32;13.10;94.80
1570;DHT22;778;50.120;8.698;2023-04-09T11:33:01;13.30;95.80
1570;DHT22;778;50.120;8.698;2023-04-09T11:35:34;13.40;96.20
1570;DHT22;778;50.120;8.698;2023-04-09T11:38:07;13.30;94.90
1570;DHT22;778;50.120;8.698;2023-04-09T11:40:37;13.30;95.80
1570;DHT22;778;50.120;8.698;2023-04-09T11:43:14;13.50;96.40
1570;DHT22;778;50.120;8.698;2023-04-09T11:45:43;13.60;96.40
1570;DHT22;778;50.120;8.698;2023-04-09T11:48:15;13.80;95.50
1570;DHT22;778;50.120;8.698;2023-04-09T11:50:46;13.70;94.50
1570;DHT22;778;50.120;8.698;2023-04-09T11:53:16;13.80;94.60
1570;DHT22;778;50.120;8.698;2023-04-09T11:55:47;13.80;93.50
1570;DHT22;778;50.120;8.698;2023-04-09T11:58:17;13.80;94.30
1570;DHT22;778;50.120;8.698;2023-04-09T12:00:52;13.80;94.50
1570;DHT22;778;50.120;8.698;2023-04-09T12:03:27;13.70;94.00
1570;DHT22;778;50.120;8.698;2023-04-09T12:06:01;13.70;93.60
1570;DHT22;778;50.120;8.698;2023-04-09T12:08:30;13.60;93.50
1570;DHT22;778;50.120;8.698;2023-04-09T12:11:07;13.60;92.20
1570;DHT22;778;50.120;8.698;2023-04-09T12:13:37;13.70;90.80
1570;DHT22;778;50.120;8.698;2023-04-09T12:16:09;13.70;91.20
1570;DHT22;778;50.120;8.698;2023-04-09T12:18:38;14.00;91.00
1570;DHT22;778;50.120;8.698;2023-04-09T12:21:08;14.10;89.50
1570;DHT22;778;50.120;8.698;2023-04-09T12:23:37;14.20;87.70
1570;DHT22;778;50.120;8.698;2023-04-09T12:26:05;13.90;88.00
1570;DHT22;778;50.120;8.698;2023-04-09T12:28:34;13.90;88.60
1570;DHT22;778;50.120;8.698;2023-04-09T12:31:02;13.90;89.40
1570;DHT22;778;50.120;8.698;2023-04-09T12:33:31;13.90;90.20
1570;DHT22;778;50.120;8.698;2023-04-09T12:36:00;13.70;88.30
1570;DHT22;778;50.120;8.698;2023-04-09T12:38:30;13.70;87.00
1570;DHT22;778;50.120;8.698;2023-04-09T12:40:58;13.70;87.30
1570;DHT22;778;50.120;8.698;2023-04-09T12:43:27;13.50;86.00
1570;DHT22;778;50.120;8.698;2023-04-09T12:45:55;13.50;87.00
1570;DHT22;778;50.120;8.698;2023-04-09T12:48:24;13.60;87.30
1570;DHT22;778;50.120;8.698;2023-04-09T12:50:52;13.50;87.30
1570;DHT22;778;50.120;8.698;2023-04-09T12:53:21;13.40;84.90
1570;DHT22;778;50.120;8.698;2023-04-09T12:55:50;13.40;84.50
1570;DHT22;778;50.120;8.698;2023-04-09T12:58:19;13.60;83.40
1570;DHT22;778;50.120;8.698;2023-04-09T13:00:47;13.80;81.70
1570;DHT22;778;50.120;8.698;2023-04-09T13:03:15;14.20;80.70
1570;DHT22;778;50.120;8.698;2023-04-09T13:05:44;14.50;80.00
1570;DHT22;778;50.120;8.698;2023-04-09T13:08:13;14.80;76.00
1570;DHT22;778;50.120;8.698;2023-04-09T13:10:42;14.90;71.80
1570;DHT22;778;50.120;8.698;2023-04-09T13:13:12;15.00;73.90
1570;DHT22;778;50.120;8.698;2023-04-09T13:15:41;15.20;72.60
1570;DHT22;778;50.120;8.698;2023-04-09T13:18:11;15.30;70.80
1570;DHT22;778;50.120;8.698;2023-04-09T13:20:40;15.50;70.00
1570;DHT22;778;50.120;8.698;2023-04-09T13:23:08;15.40;68.40
1570;DHT22;778;50.120;8.698;2023-04-09T13:25:37;15.20;68.10
1570;DHT22;778;50.120;8.698;2023-04-09T13:28:06;14.90;68.10
1570;DHT22;778;50.120;8.698;2023-04-09T13:30:36;14.80;69.20
1570;DHT22;778;50.120;8.698;2023-04-09T13:33:04;14.90;69.30
1570;DHT22;778;50.120;8.698;2023-04-09T13:35:33;14.90;68.90
1570;DHT22;778;50.120;8.698;2023-04-09T13:38:01;15.00;68.30
1570;DHT22;778;50.120;8.698;2023-04-09T13:40:30;15.10;67.50
1570;DHT22;778;50.120;8.698;2023-04-09T13:42:58;15.20;66.60
1570;DHT22;778;50.120;8.698;2023-04-09T13:45:26;15.30;67.60
1570;DHT22;778;50.120;8.698;2023-04-09T13:47:57;15.20;65.70
1570;DHT22;778;50.120;8.698;2023-04-09T13:50:26;15.20;65.10
1570;DHT22;778;50.120;8.698;2023-04-09T13:52:54;15.10;64.80
1570;DHT22;778;50.120;8.698;2023-04-09T13:55:23;15.10;65.50
1570;DHT22;778;50.120;8.698;2023-04-09T13:57:51;15.20;65.90
1570;DHT22;778;50.120;8.698;2023-04-09T14:00:20;15.40;64.60
1570;DHT22;778;50.120;8.698;2023-04-09T14:02:48;15.20;63.70
1570;DHT22;778;50.120;8.698;2023-04-09T14:05:18;15.00;64.00
1570;DHT22;778;50.120;8.698;2023-04-09T14:07:47;15.00;64.40
1570;DHT22;778;50.120;8.698;2023-04-09T14:10:15;15.00;64.80
1570;DHT22;778;50.120;8.698;2023-04-09T14:12:43;15.00;64.50
1570;DHT22;778;50.120;8.698;2023-04-09T14:15:12;14.90;64.30
1570;DHT22;778;50.120;8.698;2023-04-09T14:17:42;14.80;63.40
1570;DHT22;778;50.120;8.698;2023-04-09T14:20:11;14.70;63.40
1570;DHT22;778;50.120;8.698;2023-04-09T14:22:41;14.60;63.30
1570;DHT22;778;50.120;8.698;2023-04-09T14:25:14;14.60;64.20
1570;DHT22;778;50.120;8.698;2023-04-09T14:27:43;14.60;63.70
1570;DHT22;778;50.120;8.698;2023-04-09T14:30:12;14.60;63.90
1570;DHT22;778;50.120;8.698;2023-04-09T14:32:40;14.60;64.40
1570;DHT22;778;50.120;8.698;2023-04-09T14:35:09;14.60;63.60
1570;DHT22;778;50.120;8.698;2023-04-09T14:37:37;14.60;64.20
1570;DHT22;778;50.120;8.698;2023-04-09T14:40:08;14.60;65.30
1570;DHT22;778;50.120;8.698;2023-04-09T14:42:38;14.70;66.00
1570;DHT22;778;50.120;8.698;2023-04-09T14:45:07;14.70;64.80
1570;DHT22;778;50.120;8.698;2023-04-09T14:47:36;14.70;65.50
1570;DHT22;778;50.120;8.698;2023-04-09T14:50:05;14.70;64.70
1570;DHT22;778;50.120;8.698;2023-04-09T14:52:35;14.80;64.70
1570;DHT22;778;50.120;8.698;2023-04-09T14:55:04;15.00;65.30
1570;DHT22;778;50.120;8.698;2023-04-09T14:57:39;15.20;68.30
1570;DHT22;778;50.120;8.698;2023-04-09T15:00:10;15.40;63.90
1570;DHT22;778;50.120;8.698;2023-04-09T15:02:39;15.60;73.10
1570;DHT22;778;50.120;8.698;2023-04-09T15:05:09;15.80;67.00
1570;DHT22;778;50.120;8.698;2023-04-09T15:07:38;15.80;71.10
1570;DHT22;778;50.120;8.698;2023-04-09T15:10:07;15.90;64.30
1570;DHT22;778;50.120;8.698;2023-04-09T15:12:36;16.00;64.80
1570;DHT22;778;50.120;8.698;2023-04-09T15:15:08;15.90;62.00
1570;DHT22;778;50.120;8.698;2023-04-09T15:17:37;16.00;63.00
1570;DHT22;778;50.120;8.698;2023-04-09T15:20:06;16.00;62.10
1570;DHT22;778;50.120;8.698;2023-04-09T15:22:35;16.10;63.60
1570;DHT22;778;50.120;8.698;2023-04-09T15:25:04;16.10;60.80
1570;DHT22;778;50.120;8.698;2023-04-09T15:27:33;16.00;62.30
1570;DHT22;778;50.120;8.698;2023-04-09T15:30:04;15.90;61.10
1570;DHT22;778;50.120;8.698;2023-04-09T15:32:33;15.70;61.60
1570;DHT22;778;50.120;8.698;2023-04-09T15:35:02;15.50;61.50
1570;DHT22;778;50.120;8.698;2023-04-09T15:37:30;15.40;61.40
1570;DHT22;778;50.120;8.698;2023-04-09T15:39:59;15.10;61.30
1570;DHT22;778;50.120;8.698;2023-04-09T15:42:27;15.00;62.20
1570;DHT22;778;50.120;8.698;2023-04-09T15:44:56;15.10;62.80
1570;DHT22;778;50.120;8.698;2023-04-09T15:47:26;15.00;62.30
1570;DHT22;778;50.120;8.698;2023-04-09T15:49:56;15.00;62.50
1570;DHT22;778;50.120;8.698;2023-04-09T15:52:25;14.90;62.20
1570;DHT22;778;50.120;8.698;2023-04-09T15:54:53;15.00;62.30
1570;DHT22;778;50.120;8.698;2023-04-09T15:57:22;14.90;62.90
1570;DHT22;778;50.120;8.698;2023-04-09T15:59:51;14.90;63.20
1570;DHT22;778;50.120;8.698;2023-04-09T16:02:19;14.90;65.00
1570;DHT22;778;50.120;8.698;2023-04-09T16:04:53;14.90;62.20
1570;DHT22;778;50.120;8.698;2023-04-09T16:07:21;14.90;64.10
1570;DHT22;778;50.120;8.698;2023-04-09T16:09:49;14.90;63.80
1570;DHT22;778;50.120;8.698;2023-04-09T16:12:18;15.00;62.80
1570;DHT22;778;50.120;8.698;2023-04-09T16:14:46;15.00;62.90
1570;DHT22;778;50.120;8.698;2023-04-09T16:17:15;15.10;62.80
1570;DHT22;778;50.120;8.698;2023-04-09T16:19:43;15.20;62.00
1570;DHT22;778;50.120;8.698;2023-04-09T16:22:13;15.30;60.70
1570;DHT22;778;50.120;8.698;2023-04-09T16:24:42;15.40;61.40
1570;DHT22;778;50.120;8.698;2023-04-09T16:27:11;15.40;60.00
1570;DHT22;778;50.120;8.698;2023-04-09T16:29:40;15.60;60.20
1570;DHT22;778;50.120;8.698;2023-04-09T16:32:08;15.60;59.80
1570;DHT22;778;50.120;8.698;2023-04-09T16:34:37;15.60;58.70
1570;DHT22;778;50.120;8.698;2023-04-09T16:37:05;15.50;58.90
1570;DHT22;778;50.120;8.698;2023-04-09T16:39:35;15.50;58.70
1570;DHT22;778;50.120;8.698;2023-04-09T16:42:04;15.50;58.70
1570;DHT22;778;50.120;8.698;2023-04-09T16:44:32;15.40;58.80
1570;DHT22;778;50.120;8.698;2023-04-09T16:47:01;15.30;58.70
1570;DHT22;778;50.120;8.698;2023-04-09T16:49:29;15.20;59.60
1570;DHT22;778;50.120;8.698;2023-04-09T16:51:58;15.10;59.50